Time;durP1;ratioP1;P1;durP2;ratioP2;P2;SDS_P1;SDS_P2;PMS_P1;PMS_P2;Temp;Humidity;BMP_temperature;BMP_pressure;BME280_temperature;BME280_humidity;BME280_pressure;Samples;Min_cycle;Max_cycle;Signal;HPM_P1;HPM_P2
2020/12/02 00:00:18;;;;;;;35.30;16.00;;;4.50;99.90;;;;;;5020333;28;20046;-62
2020/12/02 00:03:11;;;;;;;25.15;14.40;;;4.50;99.90;;;;;;4995598;28;20142;-63
2020/12/02 00:05:50;;;;;;;33.92;15.48;;;4.50;99.90;;;;;;5041558;28;20033;-62
2020/12/02 00:08:31;;;;;;;50.28;19.02;;;4.50;99.90;;;;;;5051895;28;20553;-62
2020/12/02 00:10:59;;;;;;;38.25;17.17;;;4.40;99.90;;;;;;5047221;28;20032;-62
2020/12/02 00:13:31;;;;;;;30.52;15.57;;;4.40;99.90;;;;;;5056600;28;20119;-62
2020/12/02 00:15:58;;;;;;;39.15;17.33;;;4.40;99.90;;;;;;5044160;28;20037;-63
2020/12/02 00:18:23;;;;;;;30.92;15.80;;;4.40;99.90;;;;;;5044724;28;20021;-60
2020/12/02 00:20:49;;;;;;;27.58;15.02;;;4.40;99.90;;;;;;5045434;28;20072;-62
2020/12/02 00:23:15;;;;;;;29.42;14.50;;;4.40;99.90;;;;;;5037919;28;20071;-60
2020/12/02 00:25:41;;;;;;;32.50;15.60;;;4.40;99.90;;;;;;5045838;28;20025;-62
2020/12/02 00:28:10;;;;;;;34.33;15.48;;;4.40;99.90;;;;;;5052473;28;20493;-62
2020/12/02 00:30:36;;;;;;;29.77;16.40;;;4.40;99.90;;;;;;5053098;28;20024;-62
2020/12/02 00:33:24;;;;;;;33.85;16.70;;;4.40;99.90;;;;;;5038090;28;20043;-62
2020/12/02 00:35:50;;;;;;;34.78;16.50;;;4.40;99.90;;;;;;5042348;28;20036;-61
2020/12/02 00:38:18;;;;;;;31.38;16.10;;;4.40;99.90;;;;;;5048026;28;20509;-62
2020/12/02 00:40:45;;;;;;;37.83;16.10;;;4.40;99.90;;;;;;5054306;28;20024;-63
2020/12/02 00:43:16;;;;;;;29.92;15.60;;;4.40;99.90;;;;;;5040318;28;20040;-62
2020/12/02 00:45:42;;;;;;;31.27;15.00;;;4.40;99.90;;;;;;5052000;28;20052;-61
2020/12/02 00:48:13;;;;;;;30.55;16.08;;;4.40;99.90;;;;;;5038233;28;20173;-61
2020/12/02 00:50:39;;;;;;;32.78;15.65;;;4.40;99.90;;;;;;5056569;28;20432;-63
2020/12/02 00:53:17;;;;;;;37.03;16.83;;;4.40;99.90;;;;;;5047967;28;20032;-61
2020/12/02 00:55:45;;;;;;;31.77;15.95;;;4.40;99.90;;;;;;5052766;28;20029;-63
2020/12/02 00:58:18;;;;;;;27.45;14.98;;;4.40;99.90;;;;;;5060703;28;20163;-62
2020/12/02 01:00:44;;;;;;;32.70;15.43;;;4.40;99.90;;;;;;5028683;28;20048;-62
2020/12/02 01:03:26;;;;;;;31.90;15.85;;;4.40;99.90;;;;;;5046245;28;20029;-61
2020/12/02 01:05:53;;;;;;;32.55;15.68;;;4.40;99.90;;;;;;5064099;28;20036;-61
2020/12/02 01:08:31;;;;;;;30.50;15.48;;;4.50;99.90;;;;;;5054346;28;20091;-63
2020/12/02 01:11:12;;;;;;;26.63;14.82;;;4.40;99.90;;;;;;5053466;28;20411;-61
2020/12/02 01:13:38;;;;;;;26.77;13.07;;;4.40;99.90;;;;;;5052834;28;20828;-62
2020/12/02 01:16:14;;;;;;;30.23;13.70;;;4.40;99.90;;;;;;5041654;28;20032;-61
2020/12/02 01:18:40;;;;;;;25.50;14.48;;;4.40;99.90;;;;;;5059324;28;20535;-62
2020/12/02 01:21:22;;;;;;;28.50;15.18;;;4.40;99.90;;;;;;5046165;28;20119;-62
2020/12/02 01:23:56;;;;;;;32.95;17.40;;;4.40;99.90;;;;;;5058710;28;20697;-62
2020/12/02 01:26:26;;;;;;;30.65;14.65;;;4.50;99.90;;;;;;5059589;28;20032;-63
2020/12/02 01:28:55;;;;;;;28.40;14.43;;;4.40;99.90;;;;;;5045180;28;20025;-63
2020/12/02 01:31:23;;;;;;;25.92;15.32;;;4.40;99.90;;;;;;5050106;28;20160;-60
2020/12/02 01:33:50;;;;;;;31.48;15.57;;;4.50;99.90;;;;;;5056774;28;21033;-61
2020/12/02 01:36:18;;;;;;;28.05;14.50;;;4.40;99.90;;;;;;5049803;28;20031;-61
2020/12/02 01:38:44;;;;;;;30.70;15.35;;;4.40;99.90;;;;;;5055984;28;20059;-61
2020/12/02 01:41:11;;;;;;;28.42;16.02;;;4.40;99.90;;;;;;5055738;28;20398;-62
2020/12/02 01:43:37;;;;;;;33.95;16.33;;;4.40;99.90;;;;;;5062660;28;20182;-61
2020/12/02 01:46:28;;;;;;;31.05;15.82;;;4.40;99.90;;;;;;5041725;28;20687;-62
2020/12/02 01:49:19;;;;;;;31.08;16.42;;;4.40;99.90;;;;;;5050676;28;20466;-62
2020/12/02 01:52:24;;;;;;;31.20;16.17;;;4.40;99.90;;;;;;5046621;28;20037;-63
2020/12/02 01:54:57;;;;;;;32.05;15.38;;;4.40;99.90;;;;;;5045482;28;20033;-61
2020/12/02 01:57:33;;;;;;;27.00;14.73;;;4.40;99.90;;;;;;5031040;28;20022;-62
2020/12/02 02:00:05;;;;;;;29.15;15.23;;;4.40;99.90;;;;;;5025949;28;20057;-62
2020/12/02 02:02:38;;;;;;;26.45;14.35;;;4.40;99.90;;;;;;5001918;28;20033;-61
2020/12/02 02:05:13;;;;;;;35.93;16.13;;;4.40;99.90;;;;;;5028264;28;20021;-61
2020/12/02 02:07:39;;;;;;;34.20;16.02;;;4.30;99.90;;;;;;5050737;28;20055;-62
2020/12/02 02:10:35;;;;;;;23.70;12.48;;;4.30;99.90;;;;;;5042666;28;20111;-61
2020/12/02 02:13:28;;;;;;;26.25;13.85;;;4.30;99.90;;;;;;5047786;28;20748;-62
2020/12/02 02:16:15;;;;;;;24.70;13.50;;;4.30;99.90;;;;;;5056523;28;20033;-61
2020/12/02 02:18:41;;;;;;;22.92;12.27;;;4.30;99.90;;;;;;5050645;28;20023;-61
2020/12/02 02:21:23;;;;;;;24.60;13.52;;;4.30;99.90;;;;;;5056220;28;20645;-62
2020/12/02 02:23:49;;;;;;;22.23;12.35;;;4.30;99.90;;;;;;5046056;28;20544;-61
2020/12/02 02:26:14;;;;;;;26.50;13.43;;;4.30;99.90;;;;;;5061984;28;20032;-61
2020/12/02 02:29:03;;;;;;;21.33;12.55;;;4.40;99.90;;;;;;5040351;28;20033;-61
2020/12/02 02:31:33;;;;;;;25.98;12.85;;;4.40;99.90;;;;;;5038776;28;20038;-63
2020/12/02 02:33:59;;;;;;;28.40;13.02;;;4.30;99.90;;;;;;5048019;28;20075;-62
2020/12/02 02:36:27;;;;;;;23.45;12.43;;;4.30;99.90;;;;;;5048219;28;20401;-61
2020/12/02 02:38:54;;;;;;;27.10;13.43;;;4.30;99.90;;;;;;5052561;28;20056;-62
2020/12/02 02:41:22;;;;;;;23.27;12.45;;;4.30;99.90;;;;;;5048112;28;20029;-61
2020/12/02 02:43:48;;;;;;;27.50;13.80;;;4.30;99.90;;;;;;5051119;28;20025;-60
2020/12/02 02:46:13;;;;;;;22.75;12.38;;;4.30;99.90;;;;;;5040571;28;20053;-61
2020/12/02 02:48:39;;;;;;;28.73;13.68;;;4.30;99.90;;;;;;5040698;28;20013;-63
2020/12/02 02:51:06;;;;;;;20.60;12.30;;;4.30;99.90;;;;;;5044690;28;20021;-62
2020/12/02 02:53:32;;;;;;;39.25;15.20;;;4.30;99.90;;;;;;5047441;28;20028;-62
2020/12/02 02:55:58;;;;;;;37.60;14.50;;;4.30;99.90;;;;;;5061532;28;20032;-61
2020/12/02 02:58:27;;;;;;;26.05;14.00;;;4.30;99.90;;;;;;5037023;28;20017;-62
2020/12/02 03:00:53;;;;;;;25.75;13.32;;;4.30;99.90;;;;;;5015018;28;20049;-62
2020/12/02 03:03:19;;;;;;;29.23;13.75;;;4.40;99.90;;;;;;5048199;28;20017;-61
2020/12/02 03:05:46;;;;;;;54.95;15.98;;;4.30;99.90;;;;;;5049590;28;20056;-62
2020/12/02 03:08:12;;;;;;;303.15;24.23;;;4.30;99.90;;;;;;5036377;28;20036;-62
2020/12/02 03:10:41;;;;;;;145.25;20.13;;;4.30;99.90;;;;;;5038394;28;20032;-61
2020/12/02 03:13:36;;;;;;;112.93;19.70;;;4.30;99.90;;;;;;5027105;28;20410;-61
2020/12/02 03:16:07;;;;;;;145.45;20.40;;;4.30;99.90;;;;;;5041746;28;20456;-60
2020/12/02 03:18:33;;;;;;;66.35;14.90;;;4.30;99.90;;;;;;5048160;28;20029;-62
2020/12/02 03:21:02;;;;;;;233.25;20.80;;;4.30;99.90;;;;;;5043981;28;20104;-60
2020/12/02 03:23:28;;;;;;;108.43;16.67;;;4.30;99.90;;;;;;5049152;28;20434;-63
2020/12/02 03:25:54;;;;;;;162.75;16.38;;;4.30;99.90;;;;;;5048666;28;20028;-61
2020/12/02 03:28:20;;;;;;;170.60;18.40;;;4.30;99.90;;;;;;5052757;28;20086;-62
2020/12/02 03:30:46;;;;;;;181.20;18.70;;;4.30;99.90;;;;;;5054340;28;20044;-63
2020/12/02 03:33:14;;;;;;;75.18;15.02;;;4.30;99.90;;;;;;5048933;28;20056;-61
2020/12/02 03:35:40;;;;;;;33.30;16.35;;;4.20;99.90;;;;;;5052461;28;20029;-61
2020/12/02 03:38:06;;;;;;;34.85;15.48;;;4.20;99.90;;;;;;5045389;28;20548;-63
2020/12/02 03:40:32;;;;;;;49.13;14.95;;;4.20;99.90;;;;;;5050415;28;20562;-63
2020/12/02 03:42:57;;;;;;;25.73;14.60;;;4.20;99.90;;;;;;5047689;28;20433;-62
2020/12/02 03:45:23;;;;;;;30.90;15.73;;;4.20;99.90;;;;;;5034665;28;20483;-62
2020/12/02 03:47:49;;;;;;;28.10;14.15;;;4.20;99.90;;;;;;5047501;28;20036;-62
2020/12/02 03:50:15;;;;;;;30.77;14.48;;;4.30;99.90;;;;;;5053429;28;20516;-62
2020/12/02 03:52:41;;;;;;;28.15;14.18;;;4.20;99.90;;;;;;5054902;28;20029;-63
2020/12/02 03:55:07;;;;;;;26.90;12.20;;;4.20;99.90;;;;;;5051252;28;20482;-63
2020/12/02 03:57:34;;;;;;;20.83;11.35;;;4.30;99.90;;;;;;5048044;28;20104;-61
2020/12/02 04:00:00;;;;;;;21.92;12.35;;;4.30;99.90;;;;;;5047448;28;20056;-61
2020/12/02 04:02:26;;;;;;;23.83;12.55;;;4.30;99.90;;;;;;5031098;28;20060;-64
2020/12/02 04:04:52;;;;;;;21.52;11.73;;;4.30;99.90;;;;;;5059426;28;20074;-62
2020/12/02 04:07:17;;;;;;;23.80;12.50;;;4.30;99.90;;;;;;5054815;28;20096;-63
2020/12/02 04:09:43;;;;;;;23.60;11.65;;;4.20;99.90;;;;;;5038613;28;20387;-61
2020/12/02 04:12:08;;;;;;;24.17;11.48;;;4.30;99.90;;;;;;5029418;28;20027;-62
2020/12/02 04:14:34;;;;;;;19.00;11.13;;;4.20;99.90;;;;;;5035636;28;20033;-62
2020/12/02 04:16:59;;;;;;;20.25;11.30;;;4.20;99.90;;;;;;5037453;28;20681;-62
2020/12/02 04:19:25;;;;;;;22.17;12.18;;;4.20;99.90;;;;;;5040395;28;20074;-62
2020/12/02 04:21:55;;;;;;;22.83;12.30;;;4.20;99.90;;;;;;5054576;28;20030;-61
2020/12/02 04:24:21;;;;;;;23.40;11.75;;;4.10;99.90;;;;;;5058538;28;20153;-61
2020/12/02 04:26:46;;;;;;;25.52;12.20;;;4.00;99.90;;;;;;5038640;28;20061;-63
2020/12/02 04:29:12;;;;;;;22.98;13.10;;;4.00;99.90;;;;;;5052624;28;20085;-60
2020/12/02 04:31:37;;;;;;;24.80;11.90;;;4.00;99.90;;;;;;5054954;28;20068;-62
2020/12/02 04:34:03;;;;;;;23.60;12.50;;;4.00;99.90;;;;;;5043064;28;20021;-61
2020/12/02 04:36:28;;;;;;;25.02;12.25;;;4.00;99.90;;;;;;5049516;28;20033;-62
2020/12/02 04:38:54;;;;;;;22.30;13.13;;;4.00;99.90;;;;;;5061834;28;20029;-63
2020/12/02 04:41:19;;;;;;;25.70;14.48;;;4.00;99.90;;;;;;5039980;28;20052;-62
2020/12/02 04:43:48;;;;;;;25.35;13.50;;;4.00;99.90;;;;;;5037510;28;20894;-61
2020/12/02 04:46:24;;;;;;;25.88;13.95;;;4.00;99.90;;;;;;5044641;28;20033;-63
2020/12/02 04:48:53;;;;;;;46.28;15.35;;;4.00;99.90;;;;;;5048476;28;20025;-62
2020/12/02 04:51:25;;;;;;;67.13;13.23;;;3.90;99.90;;;;;;5035426;28;20025;-62
2020/12/02 04:53:54;;;;;;;32.28;12.82;;;3.90;99.90;;;;;;5046081;28;20029;-62
2020/12/02 04:56:20;;;;;;;29.63;12.15;;;4.00;99.90;;;;;;5031661;28;20029;-61
2020/12/02 04:58:48;;;;;;;37.33;13.85;;;4.00;99.90;;;;;;5046454;28;20490;-62
2020/12/02 05:01:16;;;;;;;38.22;15.10;;;4.00;99.90;;;;;;5052322;28;20040;-62
2020/12/02 05:03:57;;;;;;;26.63;11.80;;;4.00;99.90;;;;;;5016709;28;20068;-61
2020/12/02 05:06:26;;;;;;;23.75;13.07;;;4.00;99.90;;;;;;5050713;28;20029;-62
2020/12/02 05:09:05;;;;;;;21.70;11.75;;;4.10;99.90;;;;;;5040636;28;20029;-61
2020/12/02 05:11:30;;;;;;;62.58;12.05;;;4.00;99.90;;;;;;5056499;28;20017;-62
2020/12/02 05:14:00;;;;;;;203.82;16.30;;;4.00;99.90;;;;;;5045332;28;20104;-62
2020/12/02 05:16:26;;;;;;;235.32;17.70;;;4.00;99.90;;;;;;5044195;28;20028;-63
2020/12/02 05:19:14;;;;;;;106.38;14.93;;;4.00;99.90;;;;;;5050508;28;20128;-62
2020/12/02 05:21:42;;;;;;;171.88;17.38;;;4.00;99.90;;;;;;5038859;28;20045;-63
2020/12/02 05:24:18;;;;;;;203.98;18.35;;;4.00;99.90;;;;;;5005623;28;20413;-60
2020/12/02 05:26:49;;;;;;;111.13;30.15;;;4.00;99.90;;;;;;5029525;28;20057;-62
2020/12/02 05:29:36;;;;;;;189.52;85.93;;;4.00;99.90;;;;;;5030673;28;20594;-63
2020/12/02 05:32:27;;;;;;;272.35;113.68;;;4.00;99.90;;;;;;5033732;28;20021;-61
2020/12/02 05:34:53;;;;;;;85.95;41.05;;;4.00;99.90;;;;;;5032758;28;20099;-61
2020/12/02 05:37:40;;;;;;;63.25;31.92;;;4.00;99.90;;;;;;5036624;28;20108;-62
2020/12/02 05:40:13;;;;;;;47.50;21.92;;;4.00;99.90;;;;;;5015570;28;20552;-61
2020/12/02 05:42:47;;;;;;;22.15;12.07;;;4.00;99.90;;;;;;5024156;28;20037;-61
2020/12/02 05:45:34;;;;;;;16.35;9.68;;;4.00;99.90;;;;;;5037953;28;20441;-62
2020/12/02 05:48:04;;;;;;;17.42;9.82;;;4.00;99.90;;;;;;5039381;28;20029;-61
2020/12/02 05:50:29;;;;;;;15.75;8.63;;;4.00;99.90;;;;;;5038724;28;20542;-61
2020/12/02 05:53:33;;;;;;;18.20;9.38;;;4.00;99.90;;;;;;5041959;28;20167;-62
2020/12/02 05:56:00;;;;;;;14.82;9.35;;;4.00;99.90;;;;;;5030611;28;20063;-61
2020/12/02 05:58:31;;;;;;;17.92;9.73;;;4.00;99.90;;;;;;5032511;28;20553;-63
2020/12/02 06:00:57;;;;;;;13.95;8.25;;;4.00;99.90;;;;;;5038442;28;20507;-62
2020/12/02 06:03:29;;;;;;;17.10;9.02;;;4.00;99.90;;;;;;5009431;28;20056;-62
2020/12/02 06:06:00;;;;;;;12.98;8.48;;;4.00;99.90;;;;;;5046889;28;20060;-63
2020/12/02 06:08:40;;;;;;;15.02;9.07;;;4.00;99.90;;;;;;5045029;28;20025;-62
2020/12/02 06:11:17;;;;;;;15.23;8.48;;;4.00;99.90;;;;;;5032666;28;20115;-63
2020/12/02 06:13:53;;;;;;;15.57;8.65;;;4.00;99.90;;;;;;5032235;28;20033;-63
2020/12/02 06:16:24;;;;;;;19.20;9.75;;;4.00;99.90;;;;;;5033524;28;20160;-60
2020/12/02 06:18:50;;;;;;;18.75;8.95;;;4.00;99.90;;;;;;5032366;28;20022;-62
2020/12/02 06:21:42;;;;;;;17.20;9.48;;;4.00;99.90;;;;;;5030719;28;20029;-63
2020/12/02 06:24:11;;;;;;;20.10;9.93;;;4.00;99.90;;;;;;5030984;28;20032;-62
2020/12/02 06:26:39;;;;;;;16.25;9.90;;;4.00;99.90;;;;;;5034591;28;20021;-63
2020/12/02 06:29:07;;;;;;;16.02;10.73;;;4.00;99.90;;;;;;5036785;28;20037;-60
2020/12/02 06:31:33;;;;;;;19.15;11.10;;;4.00;99.90;;;;;;5034283;28;20029;-62
2020/12/02 06:34:07;;;;;;;21.25;10.82;;;4.00;99.90;;;;;;5033886;28;20386;-62
2020/12/02 06:36:35;;;;;;;18.10;9.50;;;4.00;99.90;;;;;;5031773;28;20029;-61
2020/12/02 06:39:09;;;;;;;14.60;8.85;;;4.00;99.90;;;;;;5032248;28;20024;-62
2020/12/02 06:41:42;;;;;;;13.75;8.93;;;3.90;99.90;;;;;;5030023;28;20549;-62
2020/12/02 06:44:11;;;;;;;17.50;8.38;;;3.90;99.90;;;;;;5036486;28;20037;-63
2020/12/02 06:46:55;;;;;;;20.88;8.10;;;3.90;99.90;;;;;;5032385;28;20017;-61
2020/12/02 06:49:22;;;;;;;16.58;8.18;;;3.90;99.90;;;;;;5036492;28;20033;-62
2020/12/02 06:52:04;;;;;;;13.07;8.68;;;3.90;99.90;;;;;;5032572;28;20616;-62
2020/12/02 06:54:33;;;;;;;11.40;7.60;;;3.90;99.90;;;;;;5035820;28;20032;-61
2020/12/02 06:57:19;;;;;;;12.15;7.80;;;3.90;99.90;;;;;;5032192;28;20694;-63
2020/12/02 06:59:59;;;;;;;14.68;8.40;;;3.90;99.90;;;;;;5040113;28;20108;-63
2020/12/02 07:02:47;;;;;;;12.52;8.02;;;3.90;99.90;;;;;;5005653;28;20166;-61
2020/12/02 07:05:24;;;;;;;14.15;8.55;;;3.80;99.90;;;;;;5038926;28;20091;-62
2020/12/02 07:08:05;;;;;;;14.57;8.77;;;3.80;99.90;;;;;;5045153;28;20100;-63
2020/12/02 07:10:31;;;;;;;12.80;7.75;;;3.80;99.90;;;;;;5034651;28;20498;-63
2020/12/02 07:12:56;;;;;;;14.18;8.23;;;3.80;99.90;;;;;;5033357;28;20031;-61
2020/12/02 07:15:23;;;;;;;15.88;9.50;;;3.80;99.90;;;;;;5033733;28;20390;-61
2020/12/02 07:17:49;;;;;;;12.63;7.25;;;3.80;99.90;;;;;;5032784;28;20045;-63
2020/12/02 07:20:17;;;;;;;12.10;7.75;;;3.80;99.90;;;;;;5033538;28;20060;-61
2020/12/02 07:22:54;;;;;;;16.70;7.68;;;3.80;99.90;;;;;;5029702;28;20036;-63
2020/12/02 07:25:23;;;;;;;11.95;8.13;;;3.80;99.90;;;;;;5035063;28;20052;-63
2020/12/02 07:27:49;;;;;;;15.40;9.10;;;3.80;99.90;;;;;;5033533;28;20506;-61
2020/12/02 07:30:30;;;;;;;14.93;8.05;;;3.80;99.90;;;;;;5049830;28;20082;-63
2020/12/02 07:32:55;;;;;;;12.95;8.00;;;3.80;99.90;;;;;;5038716;28;20025;-63
2020/12/02 07:35:23;;;;;;;14.48;7.45;;;3.90;99.90;;;;;;5051428;28;20013;-62
2020/12/02 07:38:04;;;;;;;13.98;8.27;;;3.80;99.90;;;;;;5038733;28;20070;-63
2020/12/02 07:40:35;;;;;;;12.02;7.80;;;3.90;99.90;;;;;;5055671;28;20367;-62
2020/12/02 07:43:03;;;;;;;14.73;8.10;;;3.90;99.90;;;;;;5036145;28;20438;-62
2020/12/02 07:45:31;;;;;;;13.18;8.70;;;3.90;99.90;;;;;;5048816;28;20029;-63
2020/12/02 07:48:15;;;;;;;13.35;8.63;;;3.90;99.90;;;;;;5050486;28;20517;-63
2020/12/02 07:50:44;;;;;;;14.00;8.90;;;3.90;99.90;;;;;;5033626;28;20155;-61
2020/12/02 07:53:28;;;;;;;15.35;9.85;;;3.80;99.90;;;;;;5058954;28;20017;-62
2020/12/02 07:55:57;;;;;;;15.57;8.77;;;3.80;99.90;;;;;;5033924;28;20027;-63
2020/12/02 07:58:33;;;;;;;13.10;8.30;;;3.90;99.90;;;;;;5036681;28;20059;-63
2020/12/02 08:01:35;;;;;;;24.63;14.80;;;3.90;99.90;;;;;;5060694;28;20508;-61
2020/12/02 08:04:32;;;;;;;16.20;10.25;;;3.90;99.90;;;;;;5007092;28;20032;-62
2020/12/02 08:07:09;;;;;;;16.23;9.45;;;3.90;99.90;;;;;;5049806;28;20072;-62
2020/12/02 08:09:49;;;;;;;16.15;11.95;;;4.00;99.90;;;;;;5042119;28;21860;-64
2020/12/02 08:12:18;;;;;;;12.93;7.78;;;4.10;99.90;;;;;;5040743;28;20612;-62
2020/12/02 08:14:59;;;;;;;11.77;8.40;;;4.30;99.90;;;;;;5050035;28;20528;-63
2020/12/02 08:17:26;;;;;;;14.45;7.57;;;4.30;99.90;;;;;;5060471;28;20020;-61
2020/12/02 08:19:54;;;;;;;11.13;7.75;;;4.30;99.90;;;;;;5048914;28;20029;-62
2020/12/02 08:22:24;;;;;;;13.00;8.18;;;4.30;99.90;;;;;;5059459;28;20040;-62
2020/12/02 08:25:01;;;;;;;12.48;7.68;;;4.30;99.90;;;;;;5045542;28;20482;-62
2020/12/02 08:27:29;;;;;;;9.13;6.80;;;4.40;99.90;;;;;;5044994;28;20032;-63
2020/12/02 08:29:55;;;;;;;11.93;7.00;;;4.40;99.90;;;;;;5049066;28;20025;-63
2020/12/02 08:32:30;;;;;;;13.65;8.68;;;4.30;99.90;;;;;;5037472;28;20061;-63
2020/12/02 08:34:56;;;;;;;14.20;8.98;;;4.30;99.90;;;;;;5061091;28;20048;-63
2020/12/02 08:37:33;;;;;;;10.80;7.35;;;4.30;99.90;;;;;;5039140;28;20087;-63
2020/12/02 08:40:25;;;;;;;13.90;9.05;;;4.30;99.90;;;;;;5051136;28;20017;-62
2020/12/02 08:42:50;;;;;;;11.18;7.45;;;4.20;99.90;;;;;;5043186;28;20044;-62
2020/12/02 08:45:21;;;;;;;12.95;7.70;;;4.20;99.90;;;;;;5058083;28;20021;-61
2020/12/02 08:47:54;;;;;;;11.68;7.20;;;4.20;99.90;;;;;;5046308;28;20026;-62
2020/12/02 08:50:26;;;;;;;11.20;7.03;;;4.30;99.90;;;;;;5053666;28;20032;-60
2020/12/02 08:52:54;;;;;;;10.23;6.57;;;4.20;99.90;;;;;;5041003;28;20056;-62
2020/12/02 08:55:21;;;;;;;9.68;6.70;;;4.20;99.90;;;;;;5047645;28;20033;-61
2020/12/02 08:57:46;;;;;;;10.00;6.03;;;4.20;99.90;;;;;;5041622;28;20033;-62
2020/12/02 09:00:17;;;;;;;8.32;6.50;;;4.30;99.90;;;;;;5049316;28;20833;-62
2020/12/02 09:02:43;;;;;;;10.65;6.30;;;4.40;99.90;;;;;;5016504;28;20120;-62
2020/12/02 09:05:09;;;;;;;10.00;6.63;;;4.40;99.90;;;;;;5054776;28;20103;-62
2020/12/02 09:07:34;;;;;;;10.35;7.05;;;4.50;99.90;;;;;;5048020;28;20021;-62
2020/12/02 09:10:00;;;;;;;9.20;6.63;;;4.50;99.90;;;;;;5050628;28;20052;-63
2020/12/02 09:12:26;;;;;;;9.38;6.30;;;4.60;99.90;;;;;;5053084;28;20032;-61
2020/12/02 09:14:52;;;;;;;9.68;6.80;;;4.60;99.90;;;;;;5050954;28;20024;-62
2020/12/02 09:17:18;;;;;;;10.13;7.05;;;4.70;99.90;;;;;;5059237;28;20097;-63
2020/12/02 09:19:43;;;;;;;10.65;6.20;;;4.80;99.90;;;;;;5055279;28;20028;-61
2020/12/02 09:22:09;;;;;;;7.32;5.40;;;4.90;99.90;;;;;;5058308;28;20060;-62
2020/12/02 09:24:35;;;;;;;8.32;5.55;;;5.10;99.90;;;;;;5040100;28;20048;-61
2020/12/02 09:27:00;;;;;;;9.82;6.63;;;5.10;99.90;;;;;;5038086;28;20083;-61
2020/12/02 09:29:26;;;;;;;8.73;5.65;;;5.10;99.90;;;;;;5046142;28;20028;-62
2020/12/02 09:31:51;;;;;;;10.75;6.13;;;5.10;99.90;;;;;;5044539;28;20112;-62
2020/12/02 09:34:18;;;;;;;8.73;6.07;;;5.10;99.90;;;;;;5056937;28;20185;-62
2020/12/02 09:36:45;;;;;;;8.60;5.90;;;5.10;99.90;;;;;;5049378;28;20028;-63
2020/12/02 09:39:13;;;;;;;8.30;5.05;;;5.20;99.90;;;;;;5044651;28;20072;-63
2020/12/02 09:42:01;;;;;;;10.27;5.93;;;5.20;99.90;;;;;;5056756;28;20024;-62
2020/12/02 09:44:57;;;;;;;9.05;6.15;;;5.20;99.90;;;;;;5036399;28;20032;-62
2020/12/02 09:47:23;;;;;;;19.48;13.88;;;5.10;99.90;;;;;;5054687;28;20103;-62
2020/12/02 09:49:49;;;;;;;7.88;5.97;;;5.00;99.90;;;;;;5042517;28;20111;-61
2020/12/02 09:52:29;;;;;;;8.48;5.65;;;5.10;99.90;;;;;;5041697;28;20474;-61
2020/12/02 09:54:55;;;;;;;7.47;5.53;;;5.10;99.90;;;;;;5032659;28;20111;-63
2020/12/02 09:57:25;;;;;;;8.48;5.38;;;5.20;99.90;;;;;;5051474;28;20882;-62
2020/12/02 09:59:58;;;;;;;7.60;5.25;;;5.30;99.90;;;;;;5056899;28;20021;-62
2020/12/02 10:02:33;;;;;;;7.50;5.68;;;5.40;99.90;;;;;;5063488;28;20539;-63
2020/12/02 10:05:28;;;;;;;8.38;5.75;;;5.50;99.90;;;;;;5041685;28;20502;-61
2020/12/02 10:08:09;;;;;;;7.82;5.13;;;5.50;99.90;;;;;;5029728;28;20044;-61
2020/12/02 10:10:50;;;;;;;7.75;5.32;;;5.50;99.90;;;;;;5050410;28;20051;-61
2020/12/02 10:13:51;;;;;;;7.22;5.78;;;5.40;99.90;;;;;;5036171;28;20118;-63
2020/12/02 10:16:41;;;;;;;7.43;5.28;;;5.40;99.90;;;;;;5026481;28;20028;-63
2020/12/02 10:19:39;;;;;;;8.38;6.30;;;5.30;99.90;;;;;;5047502;28;20025;-63
2020/12/02 10:22:24;;;;;;;7.72;5.45;;;5.40;99.90;;;;;;5037942;28;20028;-62
2020/12/02 10:25:11;;;;;;;7.43;5.30;;;5.50;99.90;;;;;;5055777;28;20119;-62
2020/12/02 10:28:09;;;;;;;11.25;8.65;;;5.50;99.90;;;;;;5038737;28;20036;-61
2020/12/02 10:30:41;;;;;;;20.75;13.98;;;5.50;99.90;;;;;;5024579;28;20128;-63
2020/12/02 10:33:26;;;;;;;15.18;8.98;;;5.60;99.90;;;;;;5054564;28;20032;-63
2020/12/02 10:35:52;;;;;;;8.43;6.63;;;5.50;99.90;;;;;;5045827;28;20033;-63
2020/12/02 10:38:51;;;;;;;8.65;4.90;;;5.60;99.90;;;;;;5042180;28;20194;-62
2020/12/02 10:41:25;;;;;;;9.93;5.68;;;5.70;99.90;;;;;;5048931;28;20025;-63
2020/12/02 10:44:31;;;;;;;7.20;5.15;;;5.70;99.90;;;;;;5046368;28;20534;-63
2020/12/02 10:47:03;;;;;;;5.90;5.28;;;5.70;99.90;;;;;;5041861;28;20394;-61
2020/12/02 10:49:32;;;;;;;6.38;5.32;;;5.70;99.90;;;;;;5043215;28;20028;-63
2020/12/02 10:52:01;;;;;;;5.68;4.13;;;5.70;99.90;;;;;;5071286;28;20380;-63
2020/12/02 10:54:34;;;;;;;5.38;4.47;;;5.70;99.90;;;;;;5043739;28;20033;-63
2020/12/02 10:57:02;;;;;;;4.88;3.97;;;5.80;99.90;;;;;;5054709;28;20013;-62
2020/12/02 10:59:28;;;;;;;5.13;3.88;;;5.80;99.90;;;;;;5056449;28;20032;-62
2020/12/02 11:01:53;;;;;;;5.35;4.00;;;5.70;99.90;;;;;;5040539;28;20034;-62
2020/12/02 11:04:21;;;;;;;5.35;4.47;;;5.90;99.90;;;;;;5013532;28;20053;-63
2020/12/02 11:06:59;;;;;;;5.63;3.88;;;5.90;99.90;;;;;;5052948;28;20041;-62
2020/12/02 11:09:45;;;;;;;5.30;4.45;;;6.00;99.90;;;;;;5059053;28;20028;-62
2020/12/02 11:12:24;;;;;;;6.75;5.82;;;5.80;99.90;;;;;;5034230;28;20033;-62
2020/12/02 11:15:08;;;;;;;6.88;6.18;;;5.90;99.90;;;;;;5048879;28;21330;-62
2020/12/02 11:17:36;;;;;;;6.13;5.03;;;5.90;99.90;;;;;;5058630;28;20546;-61
2020/12/02 11:20:29;;;;;;;7.68;4.70;;;6.00;99.90;;;;;;5048782;28;20427;-60
2020/12/02 11:23:40;;;;;;;8.40;5.50;;;5.90;99.90;;;;;;5047151;28;20045;-62
2020/12/02 11:26:23;;;;;;;7.25;5.53;;;6.00;99.90;;;;;;5028141;28;20036;-62
2020/12/02 11:28:49;;;;;;;5.13;4.38;;;6.00;99.90;;;;;;5047479;28;20021;-63
2020/12/02 11:31:49;;;;;;;6.05;5.18;;;5.90;99.90;;;;;;5058335;28;20051;-62
2020/12/02 11:34:52;;;;;;;6.70;5.32;;;5.80;99.90;;;;;;5043283;28;20029;-63
2020/12/02 11:37:35;;;;;;;6.10;4.75;;;5.90;99.90;;;;;;5050749;28;20029;-63
2020/12/02 11:40:02;;;;;;;6.63;5.00;;;6.00;99.90;;;;;;5045804;28;20490;-62
2020/12/02 11:42:50;;;;;;;6.15;4.85;;;5.90;99.90;;;;;;5047711;28;20060;-62
2020/12/02 11:45:33;;;;;;;7.75;5.63;;;5.80;99.90;;;;;;5054542;28;20039;-62
2020/12/02 11:48:20;;;;;;;7.75;4.53;;;5.80;99.90;;;;;;5052475;28;20047;-63
2020/12/02 11:50:57;;;;;;;7.75;5.40;;;5.90;99.90;;;;;;5060289;28;20087;-63
2020/12/02 11:53:57;;;;;;;35.53;16.35;;;5.90;99.90;;;;;;5055981;28;20036;-61
2020/12/02 11:56:46;;;;;;;29.80;16.83;;;5.90;99.90;;;;;;5002916;28;20575;-62
2020/12/02 11:59:28;;;;;;;50.85;27.08;;;5.70;99.90;;;;;;5041670;28;20033;-63
2020/12/02 12:01:54;;;;;;;14.50;9.68;;;5.60;99.90;;;;;;5046363;28;20501;-63
2020/12/02 12:04:35;;;;;;;17.92;10.88;;;5.60;99.90;;;;;;5038255;28;20055;-62
2020/12/02 12:07:06;;;;;;;28.83;14.85;;;5.60;99.90;;;;;;5038556;28;20033;-62
2020/12/02 12:10:03;;;;;;;29.95;16.17;;;5.60;99.90;;;;;;5031802;28;20043;-63
2020/12/02 12:12:46;;;;;;;9.68;6.30;;;5.60;99.90;;;;;;5037132;28;20039;-63
2020/12/02 12:15:32;;;;;;;9.80;6.82;;;5.70;99.90;;;;;;5033444;28;20052;-62
2020/12/02 12:18:04;;;;;;;8.07;5.95;;;5.60;99.90;;;;;;5036008;28;20029;-61
2020/12/02 12:20:35;;;;;;;22.67;12.85;;;5.70;99.90;;;;;;5037048;28;20086;-60
2020/12/02 12:23:29;;;;;;;19.40;10.90;;;5.50;99.90;;;;;;5016955;28;20556;-62
2020/12/02 12:25:57;;;;;;;26.60;13.60;;;5.40;99.90;;;;;;5034671;28;20104;-62
2020/12/02 12:28:27;;;;;;;17.83;10.20;;;5.40;99.90;;;;;;5049001;28;20029;-62
2020/12/02 12:30:57;;;;;;;25.95;13.57;;;5.40;99.90;;;;;;5032842;28;20029;-61
2020/12/02 12:33:33;;;;;;;13.57;8.68;;;5.40;99.90;;;;;;5036644;28;20091;-63
2020/12/02 12:36:07;;;;;;;10.88;7.57;;;5.40;99.90;;;;;;5036353;28;20021;-62
2020/12/02 12:38:40;;;;;;;20.20;10.85;;;5.40;99.90;;;;;;5025887;28;20703;-62
2020/12/02 12:41:24;;;;;;;14.45;8.88;;;5.50;99.90;;;;;;5019312;28;20060;-63
2020/12/02 12:44:18;;;;;;;13.57;9.35;;;5.50;99.90;;;;;;5018635;28;20033;-63
2020/12/02 12:47:26;;;;;;;22.50;14.20;;;5.50;99.90;;;;;;5015100;28;20026;-63
2020/12/02 12:49:54;;;;;;;23.98;14.38;;;5.40;99.90;;;;;;5019949;28;20037;-63
2020/12/02 12:52:26;;;;;;;26.65;14.43;;;5.30;99.90;;;;;;5026591;28;20033;-62
2020/12/02 12:54:52;;;;;;;11.38;7.93;;;5.30;99.90;;;;;;5033034;28;20029;-63
2020/12/02 12:57:21;;;;;;;11.05;7.85;;;5.30;99.90;;;;;;5032618;28;20017;-63
2020/12/02 12:59:46;;;;;;;11.27;7.65;;;5.30;99.90;;;;;;5042400;28;20167;-62
2020/12/02 13:02:26;;;;;;;14.63;7.82;;;5.30;99.90;;;;;;5021647;28;20537;-62
2020/12/02 13:04:52;;;;;;;17.30;9.98;;;5.30;99.90;;;;;;5001699;28;20099;-63
2020/12/02 13:07:49;;;;;;;14.18;8.85;;;5.30;99.90;;;;;;5016347;28;20495;-63
2020/12/02 13:10:14;;;;;;;14.05;10.27;;;5.30;99.90;;;;;;5016273;28;20116;-63
2020/12/02 13:13:00;;;;;;;14.95;10.10;;;5.30;99.90;;;;;;5017631;28;20585;-62
2020/12/02 13:15:37;;;;;;;16.60;13.05;;;5.30;99.90;;;;;;5013595;28;20026;-61